ADDS TAF Data INFO
IDs: Format: Raw Decoded Include METARs

Data at: 0426 UTC 21 Jan 2018

KSAF 210353Z AUTO 15007KT 10SM BKN100 05/M09 A2977 RMK AO2 SLP047 T00501089

KSAF 202331Z 2100/2124 22011KT P6SM BKN100
  FM210600 25016G24KT 6SM -RASN OVC040
  FM210900 26013KT P6SM VCSH OVC050
  TEMPO 2111/2115 5SM -SN OVC030
  FM211500 26018G28KT P6SM OVC040
  FM211800 28026G36KT P6SM BKN050